Time;durP1;ratioP1;P1;durP2;ratioP2;P2;SDS_P1;SDS_P2;PMS_P1;PMS_P2;Temp;Humidity;BMP_temperature;BMP_pressure;BME280_temperature;BME280_humidity;BME280_pressure;Samples;Min_cycle;Max_cycle;Signal;HPM_P1;HPM_P2
2023/01/22 00:02:02;;;;;;;0.00;0.00;;;;;;;;;;6019012;23;20011;-89
2023/01/22 00:04:28;;;;;;;0.00;0.00;;;;;;;;;;6018876;23;20046;-88
2023/01/22 00:06:54;;;;;;;0.00;0.00;;;;;;;;;;6042595;23;20333;-88
2023/01/22 00:09:23;;;;;;;0.00;0.00;;;;;;;;;;6018482;23;20018;-89
2023/01/22 00:11:50;;;;;;;0.00;0.00;;;;;;;;;;6042760;23;20094;-89
2023/01/22 00:14:16;;;;;;;0.00;0.00;;;;;;;;;;6042821;23;20579;-90
2023/01/22 00:16:42;;;;;;;0.00;0.00;;;;;;;;;;6042497;23;20018;-89
2023/01/22 00:19:08;;;;;;;0.00;0.00;;;;;;;;;;6018671;23;20026;-89
2023/01/22 00:21:34;;;;;;;0.00;0.00;;;;;;;;;;6018975;23;20445;-89
2023/01/22 00:24:00;;;;;;;0.00;0.00;;;;;;;;;;6042149;23;20023;-90
2023/01/22 00:26:26;;;;;;;0.00;0.00;;;;;;;;;;6018730;23;20102;-89
2023/01/22 00:28:52;;;;;;;0.00;0.00;;;;;;;;;;6042053;23;20073;-88
2023/01/22 00:31:19;;;;;;;0.57;0.22;;;;;;;;;;6018739;23;20070;-89
2023/01/22 00:33:45;;;;;;;0.00;0.00;;;;;;;;;;6018581;23;20193;-87
2023/01/22 00:36:13;;;;;;;0.00;0.00;;;;;;;;;;6042283;23;20090;-88
2023/01/22 00:38:39;;;;;;;0.00;0.00;;;;;;;;;;6018570;23;20090;-90
2023/01/22 00:41:07;;;;;;;0.00;0.00;;;;;;;;;;6042389;23;20069;-88
2023/01/22 00:43:33;;;;;;;0.00;0.00;;;;;;;;;;6018619;23;20261;-88
2023/01/22 00:45:59;;;;;;;0.00;0.00;;;;;;;;;;6018907;23;20022;-88
2023/01/22 00:48:25;;;;;;;0.00;0.00;;;;;;;;;;6018472;23;20472;-89
2023/01/22 00:50:51;;;;;;;0.32;0.13;;;;;;;;;;6042359;23;20015;-89
2023/01/22 00:53:17;;;;;;;0.00;0.00;;;;;;;;;;6018746;23;20018;-88
2023/01/22 00:55:50;;;;;;;0.32;0.25;;;;;;;;;;6018628;23;20046;-88
2023/01/22 00:58:16;;;;;;;0.00;0.00;;;;;;;;;;6018677;23;20089;-87
2023/01/22 01:00:42;;;;;;;0.00;0.00;;;;;;;;;;6042082;23;20019;-89
2023/01/22 01:03:26;;;;;;;0.00;0.00;;;;;;;;;;6018484;23;20322;-89
2023/01/22 01:05:53;;;;;;;0.00;0.00;;;;;;;;;;6018757;23;20018;-88
2023/01/22 01:08:19;;;;;;;0.00;0.00;;;;;;;;;;6042062;23;20030;-89
2023/01/22 01:10:45;;;;;;;0.05;0.05;;;;;;;;;;6019132;23;20042;-89
2023/01/22 01:13:12;;;;;;;0.00;0.00;;;;;;;;;;6041942;23;20011;-89
2023/01/22 01:15:38;;;;;;;0.00;0.00;;;;;;;;;;6018695;23;20453;-90
2023/01/22 01:18:04;;;;;;;0.00;0.00;;;;;;;;;;6042029;23;20074;-89
2023/01/22 01:20:30;;;;;;;0.00;0.00;;;;;;;;;;6042237;23;20352;-89
2023/01/22 01:22:56;;;;;;;0.00;0.00;;;;;;;;;;6018388;23;20026;-89
2023/01/22 01:25:22;;;;;;;0.00;0.00;;;;;;;;;;6018734;23;20015;-89
2023/01/22 01:27:48;;;;;;;0.00;0.00;;;;;;;;;;6017980;23;20042;-90
2023/01/22 01:30:15;;;;;;;0.00;0.00;;;;;;;;;;6042413;23;20026;-88
2023/01/22 01:32:41;;;;;;;0.00;0.00;;;;;;;;;;6018657;23;20093;-89
2023/01/22 01:35:07;;;;;;;0.10;0.10;;;;;;;;;;6021005;23;20053;-88
2023/01/22 01:37:33;;;;;;;0.00;0.00;;;;;;;;;;6020358;23;20081;-88
2023/01/22 01:39:59;;;;;;;0.00;0.00;;;;;;;;;;6044044;23;20093;-90
2023/01/22 01:42:27;;;;;;;0.00;0.00;;;;;;;;;;6020170;23;20018;-89
2023/01/22 01:45:18;;;;;;;0.00;0.00;;;;;;;;;;6020081;23;20086;-89
2023/01/22 01:47:45;;;;;;;0.00;0.00;;;;;;;;;;6043534;23;20470;-88
2023/01/22 01:50:12;;;;;;;0.00;0.00;;;;;;;;;;6043902;23;20011;-88
2023/01/22 01:52:38;;;;;;;0.00;0.00;;;;;;;;;;6019920;23;20455;-89
2023/01/22 01:55:04;;;;;;;0.00;0.00;;;;;;;;;;6043800;23;20286;-88
2023/01/22 01:57:32;;;;;;;0.00;0.00;;;;;;;;;;6043793;23;20397;-88
2023/01/22 01:59:59;;;;;;;0.00;0.00;;;;;;;;;;6043703;23;20022;-88
2023/01/22 02:02:25;;;;;;;0.00;0.00;;;;;;;;;;6019914;23;20046;-89
2023/01/22 02:04:52;;;;;;;0.00;0.00;;;;;;;;;;6043746;23;20122;-88
2023/01/22 02:07:19;;;;;;;0.00;0.00;;;;;;;;;;6043284;23;20019;-90
2023/01/22 02:09:45;;;;;;;0.00;0.00;;;;;;;;;;6043994;23;20073;-89
2023/01/22 02:12:11;;;;;;;0.00;0.00;;;;;;;;;;6043514;23;20022;-89
2023/01/22 02:14:39;;;;;;;0.00;0.00;;;;;;;;;;6043806;23;20453;-90
2023/01/22 02:17:12;;;;;;;0.00;0.00;;;;;;;;;;6043582;23;20015;-89
2023/01/22 02:19:39;;;;;;;0.00;0.00;;;;;;;;;;6019635;23;20018;-88
2023/01/22 02:22:11;;;;;;;0.00;0.00;;;;;;;;;;6019950;23;20019;-88
2023/01/22 02:24:37;;;;;;;0.00;0.00;;;;;;;;;;6043680;23;20021;-89
2023/01/22 02:27:03;;;;;;;0.00;0.00;;;;;;;;;;6020270;23;20386;-89
2023/01/22 02:29:28;;;;;;;0.00;0.00;;;;;;;;;;6043076;23;20046;-89
2023/01/22 02:31:54;;;;;;;0.15;0.08;;;;;;;;;;6019862;23;20022;-88
2023/01/22 02:34:23;;;;;;;0.00;0.00;;;;;;;;;;6043332;23;20014;-88
2023/01/22 02:36:49;;;;;;;0.00;0.00;;;;;;;;;;6020131;23;20017;-89
2023/01/22 02:39:15;;;;;;;0.00;0.00;;;;;;;;;;6020041;23;20021;-89
2023/01/22 02:41:41;;;;;;;0.00;0.00;;;;;;;;;;6019885;23;20025;-89
2023/01/22 02:44:07;;;;;;;0.00;0.00;;;;;;;;;;6019411;23;20090;-89
2023/01/22 02:46:33;;;;;;;0.05;0.03;;;;;;;;;;6043009;23;20054;-88
2023/01/22 02:48:59;;;;;;;0.00;0.00;;;;;;;;;;6042982;23;20460;-91
2023/01/22 02:51:25;;;;;;;0.00;0.00;;;;;;;;;;6019772;23;20054;-89
2023/01/22 02:53:52;;;;;;;0.08;0.00;;;;;;;;;;6043154;23;20345;-88
2023/01/22 02:56:18;;;;;;;0.00;0.00;;;;;;;;;;6043320;23;20022;-89
2023/01/22 02:58:44;;;;;;;0.60;0.43;;;;;;;;;;6019155;23;20019;-88
2023/01/22 03:01:19;;;;;;;0.00;0.00;;;;;;;;;;6043124;23;20054;-88
2023/01/22 03:03:55;;;;;;;0.00;0.00;;;;;;;;;;6042939;23;20014;-88
2023/01/22 03:06:23;;;;;;;0.00;0.00;;;;;;;;;;6041347;23;20078;-88
2023/01/22 03:08:54;;;;;;;0.00;0.00;;;;;;;;;;6042824;23;20414;-89
2023/01/22 03:11:20;;;;;;;0.00;0.00;;;;;;;;;;6043340;23;20460;-87
2023/01/22 03:22:01;;;;;;;0.00;0.00;;;;;;;;;;6043214;23;20121;-88
2023/01/22 03:24:27;;;;;;;0.00;0.00;;;;;;;;;;6019679;23;20511;-88
2023/01/22 03:26:53;;;;;;;0.38;0.38;;;;;;;;;;6042977;23;20014;-90
2023/01/22 03:29:20;;;;;;;0.00;0.00;;;;;;;;;;6042566;23;20022;-87
2023/01/22 03:31:47;;;;;;;0.00;0.00;;;;;;;;;;6019379;23;20071;-88
2023/01/22 03:34:17;;;;;;;0.00;0.00;;;;;;;;;;6042833;23;20085;-89
2023/01/22 03:36:43;;;;;;;0.00;0.00;;;;;;;;;;6019203;23;20048;-88
2023/01/22 03:39:10;;;;;;;0.00;0.00;;;;;;;;;;6042924;23;20015;-88
2023/01/22 03:41:36;;;;;;;0.00;0.00;;;;;;;;;;6019299;23;20018;-88
2023/01/22 03:44:08;;;;;;;0.00;0.00;;;;;;;;;;6042871;23;20022;-90
2023/01/22 03:46:34;;;;;;;0.00;0.00;;;;;;;;;;6042852;23;20015;-89
2023/01/22 03:49:00;;;;;;;0.00;0.00;;;;;;;;;;6018905;23;20019;-88
2023/01/22 03:51:26;;;;;;;0.00;0.00;;;;;;;;;;6019062;23;20021;-89
2023/01/22 03:53:52;;;;;;;0.00;0.00;;;;;;;;;;6042394;23;20022;-88
2023/01/22 03:56:19;;;;;;;0.00;0.00;;;;;;;;;;6042808;23;20015;-88
2023/01/22 03:58:45;;;;;;;0.00;0.00;;;;;;;;;;6042630;23;20452;-88
2023/01/22 04:01:13;;;;;;;0.00;0.00;;;;;;;;;;6018789;23;20066;-88
2023/01/22 04:03:39;;;;;;;0.00;0.00;;;;;;;;;;6018839;23;20306;-88
2023/01/22 04:06:05;;;;;;;0.00;0.00;;;;;;;;;;6018976;23;20019;-89
2023/01/22 04:08:33;;;;;;;0.00;0.00;;;;;;;;;;6042346;23;20349;-88
2023/01/22 04:11:00;;;;;;;0.00;0.00;;;;;;;;;;6042661;23;20015;-88
2023/01/22 04:13:26;;;;;;;0.00;0.00;;;;;;;;;;6042909;23;20022;-89
2023/01/22 04:15:52;;;;;;;0.00;0.00;;;;;;;;;;6042603;23;20017;-87
2023/01/22 04:18:19;;;;;;;0.55;0.10;;;;;;;;;;6042528;23;20061;-89
2023/01/22 04:20:45;;;;;;;0.00;0.00;;;;;;;;;;6042222;23;20386;-89
2023/01/22 04:23:11;;;;;;;0.00;0.00;;;;;;;;;;6019020;23;20508;-88
2023/01/22 04:25:37;;;;;;;0.00;0.00;;;;;;;;;;6018585;23;20025;-89
2023/01/22 04:28:05;;;;;;;0.08;0.08;;;;;;;;;;6018552;23;20018;-88
2023/01/22 04:30:31;;;;;;;0.00;0.00;;;;;;;;;;6018504;23;20030;-90
2023/01/22 04:32:57;;;;;;;0.00;0.00;;;;;;;;;;6042476;23;20020;-88
2023/01/22 04:35:23;;;;;;;0.00;0.00;;;;;;;;;;6018593;23;20014;-88
2023/01/22 04:37:49;;;;;;;0.00;0.00;;;;;;;;;;6042704;23;20050;-88
2023/01/22 04:40:15;;;;;;;0.00;0.00;;;;;;;;;;6042776;23;20018;-89
2023/01/22 04:42:41;;;;;;;0.00;0.00;;;;;;;;;;6018834;23;20089;-89
2023/01/22 04:45:08;;;;;;;0.00;0.00;;;;;;;;;;6042061;23;20101;-88
2023/01/22 04:47:34;;;;;;;0.00;0.00;;;;;;;;;;6018805;23;20233;-89
2023/01/22 04:50:00;;;;;;;0.00;0.00;;;;;;;;;;6018708;23;20332;-89
2023/01/22 04:52:26;;;;;;;0.00;0.00;;;;;;;;;;6042405;23;20492;-90
2023/01/22 04:54:52;;;;;;;0.00;0.00;;;;;;;;;;6018607;23;20007;-88
2023/01/22 04:57:21;;;;;;;0.00;0.00;;;;;;;;;;6019302;23;20134;-89
2023/01/22 04:59:47;;;;;;;0.00;0.00;;;;;;;;;;6042048;23;20042;-89
2023/01/22 05:02:13;;;;;;;0.00;0.00;;;;;;;;;;6042286;23;20011;-88
2023/01/22 05:04:39;;;;;;;0.00;0.00;;;;;;;;;;6042057;23;20512;-88
2023/01/22 05:07:05;;;;;;;0.00;0.00;;;;;;;;;;6042306;23;20026;-88
2023/01/22 05:09:31;;;;;;;0.00;0.00;;;;;;;;;;6019687;23;20449;-88
2023/01/22 05:11:57;;;;;;;0.30;0.13;;;;;;;;;;6044153;23;20046;-88
2023/01/22 05:14:23;;;;;;;0.00;0.00;;;;;;;;;;6044012;23;20022;-88
2023/01/22 05:16:49;;;;;;;0.00;0.00;;;;;;;;;;6044070;23;20275;-89
2023/01/22 05:19:15;;;;;;;0.00;0.00;;;;;;;;;;6043985;23;20026;-89
2023/01/22 05:21:41;;;;;;;0.00;0.00;;;;;;;;;;6044195;23;20405;-88
2023/01/22 05:24:08;;;;;;;0.00;0.00;;;;;;;;;;6044001;23;20269;-87
2023/01/22 05:26:34;;;;;;;0.00;0.00;;;;;;;;;;6020322;23;20019;-88
2023/01/22 05:29:00;;;;;;;0.00;0.00;;;;;;;;;;6020132;23;20094;-87
2023/01/22 05:31:26;;;;;;;0.00;0.00;;;;;;;;;;6043721;23;20463;-90
2023/01/22 05:33:52;;;;;;;0.00;0.00;;;;;;;;;;6020342;23;20018;-90
2023/01/22 05:36:18;;;;;;;0.00;0.00;;;;;;;;;;6020135;23;20414;-90
2023/01/22 05:38:45;;;;;;;0.00;0.00;;;;;;;;;;6044035;23;20022;-88
2023/01/22 05:41:11;;;;;;;0.00;0.00;;;;;;;;;;6020078;23;20018;-90
2023/01/22 05:43:37;;;;;;;0.00;0.00;;;;;;;;;;6043996;23;20019;-90
2023/01/22 05:46:04;;;;;;;0.17;0.15;;;;;;;;;;6019873;23;20015;-90
2023/01/22 05:48:31;;;;;;;0.00;0.00;;;;;;;;;;6043782;23;20015;-89
2023/01/22 05:51:01;;;;;;;0.00;0.00;;;;;;;;;;6044009;23;20014;-90
2023/01/22 05:53:27;;;;;;;0.00;0.00;;;;;;;;;;6020198;23;20098;-90
2023/01/22 05:55:53;;;;;;;0.00;0.00;;;;;;;;;;6043527;23;20476;-88
2023/01/22 05:58:19;;;;;;;0.00;0.00;;;;;;;;;;6043643;23;20033;-89
2023/01/22 06:00:45;;;;;;;0.00;0.00;;;;;;;;;;6019846;23;20074;-90
2023/01/22 06:03:11;;;;;;;0.00;0.00;;;;;;;;;;6020076;23;20318;-89
2023/01/22 06:05:37;;;;;;;0.00;0.00;;;;;;;;;;6019944;23;20154;-88
2023/01/22 06:08:03;;;;;;;0.00;0.00;;;;;;;;;;6043664;23;20021;-89
2023/01/22 06:10:29;;;;;;;0.00;0.00;;;;;;;;;;6043430;23;20015;-89
2023/01/22 06:12:55;;;;;;;0.00;0.00;;;;;;;;;;6043728;23;20017;-89
2023/01/22 06:15:21;;;;;;;0.00;0.00;;;;;;;;;;6043363;23;20382;-91
2023/01/22 06:17:47;;;;;;;0.00;0.00;;;;;;;;;;6019996;23;20015;-90
2023/01/22 06:20:13;;;;;;;0.00;0.00;;;;;;;;;;6019019;23;20444;-89
2023/01/22 06:22:39;;;;;;;0.00;0.00;;;;;;;;;;6043642;23;20014;-91
2023/01/22 06:25:05;;;;;;;0.00;0.00;;;;;;;;;;6019883;23;20019;-88
2023/01/22 06:27:31;;;;;;;0.00;0.00;;;;;;;;;;6043261;23;20022;-88
2023/01/22 06:29:57;;;;;;;0.00;0.00;;;;;;;;;;6019948;23;20318;-90
2023/01/22 06:32:23;;;;;;;0.00;0.00;;;;;;;;;;6043906;23;20022;-89
2023/01/22 06:34:49;;;;;;;0.57;0.15;;;;;;;;;;6044990;23;20036;-90
2023/01/22 06:37:15;;;;;;;0.00;0.00;;;;;;;;;;6019751;23;20468;-89
2023/01/22 06:39:41;;;;;;;0.00;0.00;;;;;;;;;;6043320;23;20118;-89
2023/01/22 06:42:07;;;;;;;0.00;0.00;;;;;;;;;;6043252;23;20021;-89
2023/01/22 06:44:33;;;;;;;0.00;0.00;;;;;;;;;;6019831;23;20871;-90
2023/01/22 06:46:59;;;;;;;0.00;0.00;;;;;;;;;;6019356;23;20077;-91
2023/01/22 06:49:27;;;;;;;0.00;0.00;;;;;;;;;;6019594;23;20341;-89
2023/01/22 06:51:53;;;;;;;0.00;0.00;;;;;;;;;;6043006;23;20023;-90
2023/01/22 06:54:19;;;;;;;0.00;0.00;;;;;;;;;;6043352;23;20078;-89
2023/01/22 06:56:45;;;;;;;0.00;0.00;;;;;;;;;;6019345;23;20405;-90
2023/01/22 06:59:11;;;;;;;0.00;0.00;;;;;;;;;;6043435;23;20043;-90
2023/01/22 07:01:37;;;;;;;0.00;0.00;;;;;;;;;;6042968;23;20378;-90
2023/01/22 07:04:03;;;;;;;0.28;0.08;;;;;;;;;;6019546;23;20017;-89
2023/01/22 07:06:29;;;;;;;0.00;0.00;;;;;;;;;;6019342;23;20353;-89
2023/01/22 07:08:55;;;;;;;0.00;0.00;;;;;;;;;;6019653;23;20018;-90
2023/01/22 07:11:22;;;;;;;0.00;0.00;;;;;;;;;;6019069;23;20015;-89
2023/01/22 07:13:48;;;;;;;0.00;0.00;;;;;;;;;;6043272;23;20019;-89
2023/01/22 07:16:14;;;;;;;0.13;0.13;;;;;;;;;;6042880;23;20011;-90
2023/01/22 07:18:40;;;;;;;0.00;0.00;;;;;;;;;;6019546;23;20026;-90
2023/01/22 07:21:06;;;;;;;0.00;0.00;;;;;;;;;;6019401;23;20025;-90
2023/01/22 07:23:32;;;;;;;0.05;0.00;;;;;;;;;;6019268;23;20101;-89
2023/01/22 07:25:58;;;;;;;0.00;0.00;;;;;;;;;;6043036;23;20019;-90
2023/01/22 07:28:24;;;;;;;0.00;0.00;;;;;;;;;;6042750;23;20094;-92
2023/01/22 07:30:50;;;;;;;0.00;0.00;;;;;;;;;;6019272;23;20027;-92
2023/01/22 07:33:16;;;;;;;0.00;0.00;;;;;;;;;;6019625;23;20086;-90
2023/01/22 07:35:42;;;;;;;0.00;0.00;;;;;;;;;;6019504;23;20384;-92
2023/01/22 07:38:08;;;;;;;0.00;0.00;;;;;;;;;;6020100;23;20015;-93
2023/01/22 07:40:34;;;;;;;0.00;0.00;;;;;;;;;;6019513;23;20023;-93
2023/01/22 07:43:04;;;;;;;0.00;0.00;;;;;;;;;;6019411;23;20101;-91
2023/01/22 07:45:30;;;;;;;0.00;0.00;;;;;;;;;;6020425;23;20023;-92
2023/01/22 07:47:57;;;;;;;0.20;0.05;;;;;;;;;;6019457;23;20038;-92
2023/01/22 07:50:25;;;;;;;0.00;0.00;;;;;;;;;;6019528;23;20015;-91
2023/01/22 07:52:51;;;;;;;0.00;0.00;;;;;;;;;;6019617;23;20025;-91
2023/01/22 07:55:17;;;;;;;0.00;0.00;;;;;;;;;;6019763;23;20022;-93
2023/01/22 07:57:43;;;;;;;0.00;0.00;;;;;;;;;;6019492;23;20159;-91
2023/01/22 08:00:10;;;;;;;0.00;0.00;;;;;;;;;;6019856;23;20341;-91
2023/01/22 08:02:38;;;;;;;0.00;0.00;;;;;;;;;;6019073;23;20027;-91
2023/01/22 08:05:05;;;;;;;0.00;0.00;;;;;;;;;;6019585;23;20464;-92
2023/01/22 08:07:31;;;;;;;0.00;0.00;;;;;;;;;;6042663;23;20395;-90
2023/01/22 08:09:57;;;;;;;0.00;0.00;;;;;;;;;;6019183;23;20090;-92
2023/01/22 08:12:23;;;;;;;0.00;0.00;;;;;;;;;;6019172;23;20015;-89
2023/01/22 08:14:49;;;;;;;0.25;0.10;;;;;;;;;;6020451;23;20011;-95
2023/01/22 08:17:16;;;;;;;0.00;0.00;;;;;;;;;;6043310;23;20074;-90
2023/01/22 08:19:43;;;;;;;0.00;0.00;;;;;;;;;;6019973;23;20088;-91
2023/01/22 08:22:09;;;;;;;0.00;0.00;;;;;;;;;;6019253;23;20027;-92
2023/01/22 08:24:35;;;;;;;0.00;0.00;;;;;;;;;;6019549;23;20021;-92
2023/01/22 08:27:01;;;;;;;0.28;0.20;;;;;;;;;;6020043;23;20027;-93
2023/01/22 08:29:27;;;;;;;0.00;0.00;;;;;;;;;;6042708;23;20042;-92
2023/01/22 08:31:53;;;;;;;0.00;0.00;;;;;;;;;;6019017;23;20345;-91
2023/01/22 08:34:20;;;;;;;0.00;0.00;;;;;;;;;;6019656;23;20015;-91
2023/01/22 08:36:46;;;;;;;0.00;0.00;;;;;;;;;;6019962;23;20453;-92
2023/01/22 08:39:12;;;;;;;0.00;0.00;;;;;;;;;;6019733;23;20062;-94
2023/01/22 08:41:39;;;;;;;0.00;0.00;;;;;;;;;;6019488;23;20062;-92
2023/01/22 08:44:05;;;;;;;0.00;0.00;;;;;;;;;;6019271;23;20517;-95
2023/01/22 08:46:31;;;;;;;0.00;0.00;;;;;;;;;;6019360;23;20122;-92
2023/01/22 08:48:57;;;;;;;0.00;0.00;;;;;;;;;;6019712;23;20050;-92
2023/01/22 08:51:25;;;;;;;0.00;0.00;;;;;;;;;;6019208;23;20015;-94
2023/01/22 08:53:51;;;;;;;0.00;0.00;;;;;;;;;;6019491;23;20019;-92
2023/01/22 08:56:17;;;;;;;0.43;0.30;;;;;;;;;;6019365;23;20011;-93
2023/01/22 08:58:43;;;;;;;0.00;0.00;;;;;;;;;;6019610;23;20019;-92
2023/01/22 09:01:16;;;;;;;0.28;0.20;;;;;;;;;;6019268;23;20022;-93
2023/01/22 09:03:42;;;;;;;0.00;0.00;;;;;;;;;;6019639;23;20093;-92
2023/01/22 09:06:08;;;;;;;0.00;0.00;;;;;;;;;;6019649;23;20045;-94
2023/01/22 09:08:34;;;;;;;0.00;0.00;;;;;;;;;;6019453;23;20424;-93
2023/01/22 09:11:02;;;;;;;0.00;0.00;;;;;;;;;;6043048;23;20018;-92
2023/01/22 09:13:28;;;;;;;0.20;0.20;;;;;;;;;;6042769;23;20014;-92
2023/01/22 09:15:57;;;;;;;0.40;0.35;;;;;;;;;;6020053;23;20046;-91
2023/01/22 09:18:23;;;;;;;0.00;0.00;;;;;;;;;;6019320;23;20022;-94
2023/01/22 09:20:49;;;;;;;0.00;0.00;;;;;;;;;;6019008;23;20018;-90
2023/01/22 09:23:16;;;;;;;0.00;0.00;;;;;;;;;;6043589;23;20018;-92
2023/01/22 09:25:42;;;;;;;0.00;0.00;;;;;;;;;;6019915;23;20465;-91
2023/01/22 09:28:11;;;;;;;0.00;0.00;;;;;;;;;;6018810;23;20026;-94
2023/01/22 09:30:39;;;;;;;0.00;0.00;;;;;;;;;;6019754;23;20082;-92
2023/01/22 09:33:05;;;;;;;0.00;0.00;;;;;;;;;;6019335;23;20362;-93
2023/01/22 09:35:31;;;;;;;0.00;0.00;;;;;;;;;;6019378;23;20050;-92
2023/01/22 09:37:57;;;;;;;0.43;0.20;;;;;;;;;;6043023;23;20018;-93
2023/01/22 09:40:28;;;;;;;0.00;0.00;;;;;;;;;;6019227;23;20187;-92
2023/01/22 09:43:00;;;;;;;0.00;0.00;;;;;;;;;;6019237;23;20025;-93
2023/01/22 09:45:27;;;;;;;0.32;0.32;;;;;;;;;;6019577;23;20023;-93
2023/01/22 09:47:58;;;;;;;0.00;0.00;;;;;;;;;;6019298;23;20611;-93
2023/01/22 09:50:26;;;;;;;0.00;0.00;;;;;;;;;;6019371;23;20038;-94
2023/01/22 09:52:53;;;;;;;0.00;0.00;;;;;;;;;;6019400;23;20271;-95
2023/01/22 09:55:23;;;;;;;0.00;0.00;;;;;;;;;;6020318;23;20050;-94
2023/01/22 09:57:51;;;;;;;0.00;0.00;;;;;;;;;;6021016;23;20109;-93
2023/01/22 10:00:37;;;;;;;0.00;0.00;;;;;;;;;;6021117;23;20054;-94
2023/01/22 10:03:06;;;;;;;0.00;0.00;;;;;;;;;;6011646;23;20210;-93
2023/01/22 10:05:37;;;;;;;0.00;0.00;;;;;;;;;;6021276;23;20019;-93
2023/01/22 10:08:11;;;;;;;0.70;0.43;;;;;;;;;;6020372;23;20015;-92
2023/01/22 10:10:37;;;;;;;0.00;0.00;;;;;;;;;;6020782;23;20318;-91
2023/01/22 10:13:22;;;;;;;0.00;0.00;;;;;;;;;;6020681;23;20014;-92
2023/01/22 10:15:49;;;;;;;0.00;0.00;;;;;;;;;;6021283;23;20034;-92
2023/01/22 10:18:15;;;;;;;0.00;0.00;;;;;;;;;;6020588;23;20021;-93
2023/01/22 10:20:42;;;;;;;0.00;0.00;;;;;;;;;;6020736;23;20054;-93
2023/01/22 10:23:24;;;;;;;0.00;0.00;;;;;;;;;;6044206;23;20018;-92
2023/01/22 10:25:53;;;;;;;0.00;0.00;;;;;;;;;;6044725;23;20533;-92
2023/01/22 10:28:23;;;;;;;0.00;0.00;;;;;;;;;;6020189;23;20019;-94
2023/01/22 10:30:50;;;;;;;0.00;0.00;;;;;;;;;;6020966;23;20018;-94
2023/01/22 10:33:17;;;;;;;0.00;0.00;;;;;;;;;;6020535;23;20021;-92
2023/01/22 10:35:45;;;;;;;0.00;0.00;;;;;;;;;;6020634;23;20022;-94
2023/01/22 10:38:29;;;;;;;0.00;0.00;;;;;;;;;;6020349;23;20062;-94
2023/01/22 10:41:02;;;;;;;0.00;0.00;;;;;;;;;;6021048;23;20026;-92
2023/01/22 10:43:30;;;;;;;0.00;0.00;;;;;;;;;;6020662;23;20446;-93
2023/01/22 10:46:00;;;;;;;0.00;0.00;;;;;;;;;;6020656;23;20026;-94
2023/01/22 10:48:29;;;;;;;0.00;0.00;;;;;;;;;;6020527;23;20456;-92
2023/01/22 10:51:00;;;;;;;0.00;0.00;;;;;;;;;;6020429;23;20017;-94
2023/01/22 10:53:30;;;;;;;0.00;0.00;;;;;;;;;;6020237;23;20340;-95
2023/01/22 10:55:58;;;;;;;0.00;0.00;;;;;;;;;;6020799;23;20015;-93
2023/01/22 10:58:25;;;;;;;0.00;0.00;;;;;;;;;;6020258;23;20392;-92
2023/01/22 11:01:01;;;;;;;0.00;0.00;;;;;;;;;;6044455;23;20023;-92
2023/01/22 11:03:31;;;;;;;0.00;0.00;;;;;;;;;;6043792;23;20114;-93
2023/01/22 11:06:14;;;;;;;0.25;0.15;;;;;;;;;;6043878;23;20021;-92
2023/01/22 11:08:43;;;;;;;0.10;0.10;;;;;;;;;;6044670;23;20151;-92
2023/01/22 11:11:10;;;;;;;0.00;0.00;;;;;;;;;;6020728;23;20054;-95
2023/01/22 11:13:50;;;;;;;0.00;0.00;;;;;;;;;;6020341;23;20011;-92
2023/01/22 11:16:17;;;;;;;0.00;0.00;;;;;;;;;;6044162;23;20010;-93
2023/01/22 11:18:49;;;;;;;0.00;0.00;;;;;;;;;;6021480;23;20098;-93
2023/01/22 11:21:16;;;;;;;0.00;0.00;;;;;;;;;;6044762;23;20533;-95
2023/01/22 11:23:52;;;;;;;0.00;0.00;;;;;;;;;;6021924;23;20102;-94
2023/01/22 11:26:27;;;;;;;0.00;0.00;;;;;;;;;;6021082;23;20349;-92
2023/01/22 11:28:56;;;;;;;0.00;0.00;;;;;;;;;;6020037;23;20022;-93
2023/01/22 11:31:32;;;;;;;0.00;0.00;;;;;;;;;;6020397;23;20206;-94
2023/01/22 11:34:13;;;;;;;0.00;0.00;;;;;;;;;;6020230;23;20015;-92
2023/01/22 11:36:51;;;;;;;0.00;0.00;;;;;;;;;;6044027;23;20449;-93
2023/01/22 11:39:17;;;;;;;0.00;0.00;;;;;;;;;;6044199;23;20471;-93
2023/01/22 11:42:01;;;;;;;0.00;0.00;;;;;;;;;;6044201;23;20019;-93
2023/01/22 11:44:42;;;;;;;0.30;0.22;;;;;;;;;;6019812;23;20015;-92
2023/01/22 11:47:16;;;;;;;0.20;0.13;;;;;;;;;;6019962;23;20015;-94
2023/01/22 11:49:45;;;;;;;0.00;0.00;;;;;;;;;;6019820;23;20348;-93
2023/01/22 11:52:21;;;;;;;0.00;0.00;;;;;;;;;;6044041;23;20014;-93
2023/01/22 11:54:53;;;;;;;0.00;0.00;;;;;;;;;;6043557;23;20014;-93
2023/01/22 11:57:21;;;;;;;0.00;0.00;;;;;;;;;;6021802;23;20019;-92
2023/01/22 11:59:57;;;;;;;0.10;0.05;;;;;;;;;;6044219;23;20078;-94
2023/01/22 12:02:23;;;;;;;0.00;0.00;;;;;;;;;;6020545;23;20066;-93
2023/01/22 12:05:02;;;;;;;0.00;0.00;;;;;;;;;;6020059;23;20019;-94
2023/01/22 12:07:44;;;;;;;0.20;0.10;;;;;;;;;;6019998;23;20365;-92
2023/01/22 12:10:28;;;;;;;0.00;0.00;;;;;;;;;;6043732;23;20081;-93
2023/01/22 12:13:01;;;;;;;0.00;0.00;;;;;;;;;;6020331;23;20015;-93
2023/01/22 12:15:43;;;;;;;0.00;0.00;;;;;;;;;;6043389;23;20042;-93
2023/01/22 12:18:28;;;;;;;0.00;0.00;;;;;;;;;;6019949;23;20019;-93
2023/01/22 12:21:02;;;;;;;0.00;0.00;;;;;;;;;;6020306;23;20015;-92
2023/01/22 12:23:38;;;;;;;0.00;0.00;;;;;;;;;;6019558;23;20015;-94
2023/01/22 12:26:14;;;;;;;0.00;0.00;;;;;;;;;;6043286;23;20046;-93
2023/01/22 12:28:55;;;;;;;0.00;0.00;;;;;;;;;;6019396;23;20042;-92
2023/01/22 12:31:21;;;;;;;0.00;0.00;;;;;;;;;;6022010;23;20101;-93
2023/01/22 12:33:47;;;;;;;0.20;0.15;;;;;;;;;;6019836;23;20046;-93
2023/01/22 12:36:15;;;;;;;0.00;0.00;;;;;;;;;;6043162;23;20338;-93
2023/01/22 12:38:46;;;;;;;0.00;0.00;;;;;;;;;;6020400;23;20077;-94
2023/01/22 12:41:12;;;;;;;0.00;0.00;;;;;;;;;;6020106;23;20046;-94
2023/01/22 12:43:46;;;;;;;0.35;0.35;;;;;;;;;;6020343;23;20014;-93
2023/01/22 12:46:32;;;;;;;0.00;0.00;;;;;;;;;;6021113;23;20491;-95
2023/01/22 12:49:02;;;;;;;1.35;0.00;;;;;;;;;;6010365;23;20019;-93
2023/01/22 12:51:37;;;;;;;0.00;0.00;;;;;;;;;;6019989;23;20015;-93
2023/01/22 12:54:09;;;;;;;0.00;0.00;;;;;;;;;;6020004;23;20456;-92
2023/01/22 12:56:35;;;;;;;0.00;0.00;;;;;;;;;;6043710;23;20332;-95
2023/01/22 12:59:01;;;;;;;0.15;0.05;;;;;;;;;;6019677;23;20018;-92
2023/01/22 13:01:31;;;;;;;0.00;0.00;;;;;;;;;;6019826;23;20050;-94
2023/01/22 13:03:59;;;;;;;0.00;0.00;;;;;;;;;;6044362;23;20022;-93
2023/01/22 13:06:38;;;;;;;0.00;0.00;;;;;;;;;;6021337;23;20066;-94
2023/01/22 13:09:06;;;;;;;0.00;0.00;;;;;;;;;;6019585;23;20055;-93
2023/01/22 13:11:36;;;;;;;0.00;0.00;;;;;;;;;;6020109;23;20125;-93
2023/01/22 13:14:08;;;;;;;0.65;0.20;;;;;;;;;;6019504;23;20067;-93
2023/01/22 13:16:35;;;;;;;0.00;0.00;;;;;;;;;;6019568;23;20015;-92
2023/01/22 13:19:15;;;;;;;0.00;0.00;;;;;;;;;;6043067;23;20089;-94
2023/01/22 13:21:42;;;;;;;0.00;0.00;;;;;;;;;;6019945;23;20019;-93
2023/01/22 13:24:13;;;;;;;0.00;0.00;;;;;;;;;;6019644;23;20019;-92
2023/01/22 13:26:40;;;;;;;0.00;0.00;;;;;;;;;;6020493;23;20021;-92
2023/01/22 13:29:18;;;;;;;0.00;0.00;;;;;;;;;;6020860;23;20528;-92
2023/01/22 13:31:51;;;;;;;0.00;0.00;;;;;;;;;;6021239;23;20011;-93
2023/01/22 13:34:18;;;;;;;0.00;0.00;;;;;;;;;;6021249;23;20461;-94
2023/01/22 13:36:45;;;;;;;0.00;0.00;;;;;;;;;;6021243;23;20108;-92
2023/01/22 13:39:18;;;;;;;0.00;0.00;;;;;;;;;;6021050;23;20464;-93
2023/01/22 13:41:47;;;;;;;0.00;0.00;;;;;;;;;;6021395;23;20222;-94
2023/01/22 13:44:17;;;;;;;0.00;0.00;;;;;;;;;;6021029;23;20014;-91
2023/01/22 13:46:43;;;;;;;0.00;0.00;;;;;;;;;;6021547;23;20070;-94
2023/01/22 13:49:12;;;;;;;0.00;0.00;;;;;;;;;;6020710;23;20019;-92
2023/01/22 13:51:38;;;;;;;0.00;0.00;;;;;;;;;;6021093;23;20350;-93
2023/01/22 13:54:04;;;;;;;0.00;0.00;;;;;;;;;;6021721;23;20097;-95
2023/01/22 13:56:31;;;;;;;0.00;0.00;;;;;;;;;;6020688;23;20015;-92
2023/01/22 13:59:15;;;;;;;0.00;0.00;;;;;;;;;;6020875;23;20164;-94
2023/01/22 14:01:41;;;;;;;0.00;0.00;;;;;;;;;;6021018;23;20023;-92
2023/01/22 14:04:23;;;;;;;0.00;0.00;;;;;;;;;;6044444;23;20453;-92
2023/01/22 14:06:49;;;;;;;0.00;0.00;;;;;;;;;;6020778;23;20037;-93
2023/01/22 14:09:45;;;;;;;0.00;0.00;;;;;;;;;;6021177;23;20318;-91
2023/01/22 14:12:14;;;;;;;0.00;0.00;;;;;;;;;;6012578;23;20532;-93
2023/01/22 14:14:40;;;;;;;0.55;0.22;;;;;;;;;;6044883;23;20007;-92
2023/01/22 14:17:06;;;;;;;0.00;0.00;;;;;;;;;;6020903;23;20018;-93
2023/01/22 14:19:33;;;;;;;0.00;0.00;;;;;;;;;;6020878;23;20018;-93
2023/01/22 14:21:59;;;;;;;0.00;0.00;;;;;;;;;;6020693;23;20015;-91
2023/01/22 14:24:25;;;;;;;0.00;0.00;;;;;;;;;;6020866;23;20026;-92
2023/01/22 14:26:53;;;;;;;0.00;0.00;;;;;;;;;;6021730;23;20019;-94
2023/01/22 14:29:19;;;;;;;0.00;0.00;;;;;;;;;;6022377;23;20034;-95
2023/01/22 14:31:46;;;;;;;0.30;0.20;;;;;;;;;;6020722;23;20038;-92
2023/01/22 14:34:12;;;;;;;0.00;0.00;;;;;;;;;;6021190;23;20010;-94
2023/01/22 14:36:38;;;;;;;0.05;0.00;;;;;;;;;;6020890;23;20051;-93
2023/01/22 14:39:04;;;;;;;0.00;0.00;;;;;;;;;;6021145;23;20038;-93
2023/01/22 14:41:30;;;;;;;0.20;0.10;;;;;;;;;;6020519;23;20021;-94
2023/01/22 14:43:56;;;;;;;0.00;0.00;;;;;;;;;;6020628;23;20046;-92
2023/01/22 14:46:22;;;;;;;0.00;0.00;;;;;;;;;;6020312;23;20025;-93
2023/01/22 14:48:48;;;;;;;0.00;0.00;;;;;;;;;;6020786;23;20055;-94
2023/01/22 14:51:14;;;;;;;0.00;0.00;;;;;;;;;;6020487;23;20070;-93
2023/01/22 14:53:40;;;;;;;0.00;0.00;;;;;;;;;;6020899;23;20463;-92
2023/01/22 14:56:09;;;;;;;0.00;0.00;;;;;;;;;;6046137;23;20089;-93
2023/01/22 14:58:38;;;;;;;0.00;0.00;;;;;;;;;;6021453;23;20037;-94